sensor_id;sensor_type;location;lat;lon;timestamp;P1;durP1;ratioP1;P2;durP2;ratioP2
63312;SDS011;49442;45.640;13.812;2023-03-23T00:02:23;7.95;;;4.25;;
63312;SDS011;49442;45.640;13.812;2023-03-23T00:04:53;6.20;;;3.90;;
63312;SDS011;49442;45.640;13.812;2023-03-23T00:07:20;6.30;;;3.85;;
63312;SDS011;49442;45.640;13.812;2023-03-23T00:09:47;7.50;;;4.20;;
63312;SDS011;49442;45.640;13.812;2023-03-23T00:12:25;9.13;;;4.22;;
63312;SDS011;49442;45.640;13.812;2023-03-23T00:14:59;6.80;;;4.03;;
63312;SDS011;49442;45.640;13.812;2023-03-23T00:17:28;7.95;;;3.90;;
63312;SDS011;49442;45.640;13.812;2023-03-23T00:19:55;10.57;;;3.90;;
63312;SDS011;49442;45.640;13.812;2023-03-23T00:22:21;6.63;;;4.45;;
63312;SDS011;49442;45.640;13.812;2023-03-23T00:24:50;7.55;;;4.50;;
63312;SDS011;49442;45.640;13.812;2023-03-23T00:27:16;8.43;;;4.40;;
63312;SDS011;49442;45.640;13.812;2023-03-23T00:29:43;6.85;;;4.40;;
63312;SDS011;49442;45.640;13.812;2023-03-23T00:32:10;6.65;;;4.22;;
63312;SDS011;49442;45.640;13.812;2023-03-23T00:34:41;7.85;;;4.72;;
63312;SDS011;49442;45.640;13.812;2023-03-23T00:37:11;9.88;;;5.30;;
63312;SDS011;49442;45.640;13.812;2023-03-23T00:39:37;7.15;;;4.18;;
63312;SDS011;49442;45.640;13.812;2023-03-23T00:42:11;9.07;;;4.85;;
63312;SDS011;49442;45.640;13.812;2023-03-23T00:44:38;7.45;;;4.82;;
63312;SDS011;49442;45.640;13.812;2023-03-23T00:47:04;9.63;;;3.90;;
63312;SDS011;49442;45.640;13.812;2023-03-23T00:49:32;8.82;;;4.57;;
63312;SDS011;49442;45.640;13.812;2023-03-23T00:52:00;5.75;;;4.15;;
63312;SDS011;49442;45.640;13.812;2023-03-23T00:54:26;6.03;;;4.40;;
63312;SDS011;49442;45.640;13.812;2023-03-23T00:56:52;7.60;;;4.55;;
63312;SDS011;49442;45.640;13.812;2023-03-23T00:59:19;8.30;;;4.88;;
63312;SDS011;49442;45.640;13.812;2023-03-23T01:01:45;7.60;;;4.40;;
63312;SDS011;49442;45.640;13.812;2023-03-23T01:04:12;8.20;;;4.88;;
63312;SDS011;49442;45.640;13.812;2023-03-23T01:06:38;10.43;;;5.30;;
63312;SDS011;49442;45.640;13.812;2023-03-23T01:09:05;8.20;;;4.65;;
63312;SDS011;49442;45.640;13.812;2023-03-23T01:11:39;6.47;;;4.63;;
63312;SDS011;49442;45.640;13.812;2023-03-23T01:14:09;11.18;;;4.45;;
63312;SDS011;49442;45.640;13.812;2023-03-23T01:16:35;11.82;;;6.15;;
63312;SDS011;49442;45.640;13.812;2023-03-23T01:19:01;7.55;;;5.03;;
63312;SDS011;49442;45.640;13.812;2023-03-23T01:21:27;6.85;;;4.72;;
63312;SDS011;49442;45.640;13.812;2023-03-23T01:23:53;8.52;;;5.13;;
63312;SDS011;49442;45.640;13.812;2023-03-23T01:26:20;8.25;;;5.10;;
63312;SDS011;49442;45.640;13.812;2023-03-23T01:28:47;6.53;;;4.90;;
63312;SDS011;49442;45.640;13.812;2023-03-23T01:31:17;7.50;;;5.43;;
63312;SDS011;49442;45.640;13.812;2023-03-23T01:33:45;8.35;;;5.53;;
63312;SDS011;49442;45.640;13.812;2023-03-23T01:36:26;8.68;;;5.47;;
63312;SDS011;49442;45.640;13.812;2023-03-23T01:38:56;10.90;;;5.80;;
63312;SDS011;49442;45.640;13.812;2023-03-23T01:41:23;7.03;;;5.53;;
63312;SDS011;49442;45.640;13.812;2023-03-23T01:46:20;8.13;;;5.07;;
63312;SDS011;49442;45.640;13.812;2023-03-23T01:48:49;10.55;;;5.60;;
63312;SDS011;49442;45.640;13.812;2023-03-23T01:51:15;9.65;;;4.80;;
63312;SDS011;49442;45.640;13.812;2023-03-23T01:53:54;6.93;;;5.00;;
63312;SDS011;49442;45.640;13.812;2023-03-23T01:56:23;8.98;;;5.82;;
63312;SDS011;49442;45.640;13.812;2023-03-23T01:58:52;10.80;;;5.07;;
63312;SDS011;49442;45.640;13.812;2023-03-23T02:01:20;6.75;;;4.97;;
63312;SDS011;49442;45.640;13.812;2023-03-23T02:03:46;8.38;;;5.25;;
63312;SDS011;49442;45.640;13.812;2023-03-23T02:06:13;11.65;;;5.20;;
63312;SDS011;49442;45.640;13.812;2023-03-23T02:08:40;8.77;;;5.43;;
63312;SDS011;49442;45.640;13.812;2023-03-23T02:11:27;7.70;;;5.82;;
63312;SDS011;49442;45.640;13.812;2023-03-23T02:13:52;8.13;;;5.13;;
63312;SDS011;49442;45.640;13.812;2023-03-23T02:16:21;8.80;;;5.65;;
63312;SDS011;49442;45.640;13.812;2023-03-23T02:18:59;14.70;;;5.07;;
63312;SDS011;49442;45.640;13.812;2023-03-23T02:22:13;9.15;;;5.47;;
63312;SDS011;49442;45.640;13.812;2023-03-23T02:30:31;10.18;;;5.35;;
63312;SDS011;49442;45.640;13.812;2023-03-23T02:41:27;6.43;;;5.00;;
63312;SDS011;49442;45.640;13.812;2023-03-23T02:43:56;8.82;;;4.82;;
63312;SDS011;49442;45.640;13.812;2023-03-23T02:46:22;7.88;;;5.35;;
63312;SDS011;49442;45.640;13.812;2023-03-23T02:48:50;8.27;;;5.35;;
63312;SDS011;49442;45.640;13.812;2023-03-23T02:51:21;6.37;;;5.53;;
63312;SDS011;49442;45.640;13.812;2023-03-23T02:53:49;8.15;;;4.75;;
63312;SDS011;49442;45.640;13.812;2023-03-23T02:56:17;6.38;;;5.35;;
63312;SDS011;49442;45.640;13.812;2023-03-23T02:58:43;6.45;;;4.90;;
63312;SDS011;49442;45.640;13.812;2023-03-23T03:03:50;7.35;;;4.70;;
63312;SDS011;49442;45.640;13.812;2023-03-23T03:09:07;6.95;;;5.00;;
63312;SDS011;49442;45.640;13.812;2023-03-23T03:11:42;5.90;;;4.65;;
63312;SDS011;49442;45.640;13.812;2023-03-23T03:14:25;8.90;;;4.88;;
63312;SDS011;49442;45.640;13.812;2023-03-23T03:19:43;7.20;;;5.00;;
63312;SDS011;49442;45.640;13.812;2023-03-23T03:22:13;6.07;;;4.75;;
63312;SDS011;49442;45.640;13.812;2023-03-23T03:24:39;5.38;;;4.78;;
63312;SDS011;49442;45.640;13.812;2023-03-23T03:27:10;7.22;;;4.75;;
63312;SDS011;49442;45.640;13.812;2023-03-23T03:29:45;7.90;;;4.68;;
63312;SDS011;49442;45.640;13.812;2023-03-23T03:32:16;5.90;;;4.57;;
63312;SDS011;49442;45.640;13.812;2023-03-23T03:34:46;7.47;;;5.23;;
63312;SDS011;49442;45.640;13.812;2023-03-23T03:37:12;7.07;;;4.75;;
63312;SDS011;49442;45.640;13.812;2023-03-23T03:39:40;5.97;;;4.28;;
63312;SDS011;49442;45.640;13.812;2023-03-23T03:42:06;8.85;;;4.85;;
63312;SDS011;49442;45.640;13.812;2023-03-23T03:44:32;6.65;;;4.55;;
63312;SDS011;49442;45.640;13.812;2023-03-23T03:46:58;7.85;;;5.07;;
63312;SDS011;49442;45.640;13.812;2023-03-23T03:49:24;4.95;;;4.43;;
63312;SDS011;49442;45.640;13.812;2023-03-23T03:51:51;5.72;;;4.63;;
63312;SDS011;49442;45.640;13.812;2023-03-23T03:54:17;7.00;;;4.50;;
63312;SDS011;49442;45.640;13.812;2023-03-23T03:56:43;6.30;;;4.65;;
63312;SDS011;49442;45.640;13.812;2023-03-23T03:59:10;9.68;;;5.28;;
63312;SDS011;49442;45.640;13.812;2023-03-23T04:01:37;9.30;;;4.78;;
63312;SDS011;49442;45.640;13.812;2023-03-23T04:04:04;5.15;;;4.00;;
63312;SDS011;49442;45.640;13.812;2023-03-23T04:06:32;6.78;;;4.70;;
63312;SDS011;49442;45.640;13.812;2023-03-23T04:09:00;8.52;;;4.80;;
63312;SDS011;49442;45.640;13.812;2023-03-23T04:11:30;6.28;;;4.55;;
63312;SDS011;49442;45.640;13.812;2023-03-23T04:13:56;5.45;;;4.15;;
63312;SDS011;49442;45.640;13.812;2023-03-23T04:16:22;7.60;;;4.68;;
63312;SDS011;49442;45.640;13.812;2023-03-23T04:18:47;6.85;;;4.65;;
63312;SDS011;49442;45.640;13.812;2023-03-23T04:21:14;6.22;;;4.40;;
63312;SDS011;49442;45.640;13.812;2023-03-23T04:23:40;6.32;;;4.35;;
63312;SDS011;49442;45.640;13.812;2023-03-23T04:26:06;5.57;;;4.38;;
63312;SDS011;49442;45.640;13.812;2023-03-23T04:28:32;6.55;;;4.55;;
63312;SDS011;49442;45.640;13.812;2023-03-23T04:30:58;6.18;;;4.10;;
63312;SDS011;49442;45.640;13.812;2023-03-23T04:33:25;6.07;;;4.35;;
63312;SDS011;49442;45.640;13.812;2023-03-23T04:35:56;5.72;;;4.00;;
63312;SDS011;49442;45.640;13.812;2023-03-23T04:38:26;6.40;;;4.20;;
63312;SDS011;49442;45.640;13.812;2023-03-23T04:40:52;6.45;;;3.95;;
63312;SDS011;49442;45.640;13.812;2023-03-23T04:43:22;7.78;;;4.07;;
63312;SDS011;49442;45.640;13.812;2023-03-23T04:45:52;6.40;;;4.00;;
63312;SDS011;49442;45.640;13.812;2023-03-23T04:48:22;6.43;;;3.90;;
63312;SDS011;49442;45.640;13.812;2023-03-23T04:50:55;4.15;;;3.35;;
63312;SDS011;49442;45.640;13.812;2023-03-23T04:53:21;8.00;;;3.50;;
63312;SDS011;49442;45.640;13.812;2023-03-23T04:55:47;3.97;;;3.40;;
63312;SDS011;49442;45.640;13.812;2023-03-23T04:58:14;6.90;;;3.17;;
63312;SDS011;49442;45.640;13.812;2023-03-23T05:00:40;6.90;;;5.20;;
63312;SDS011;49442;45.640;13.812;2023-03-23T05:03:08;8.43;;;4.90;;
63312;SDS011;49442;45.640;13.812;2023-03-23T05:05:35;3.95;;;3.58;;
63312;SDS011;49442;45.640;13.812;2023-03-23T05:08:01;5.38;;;3.65;;
63312;SDS011;49442;45.640;13.812;2023-03-23T05:10:26;4.55;;;3.65;;
63312;SDS011;49442;45.640;13.812;2023-03-23T05:12:53;4.05;;;2.97;;
63312;SDS011;49442;45.640;13.812;2023-03-23T05:15:19;6.22;;;3.60;;
63312;SDS011;49442;45.640;13.812;2023-03-23T05:17:45;6.95;;;3.70;;
63312;SDS011;49442;45.640;13.812;2023-03-23T05:20:14;8.38;;;4.25;;
63312;SDS011;49442;45.640;13.812;2023-03-23T05:22:45;5.47;;;3.17;;
63312;SDS011;49442;45.640;13.812;2023-03-23T05:25:14;6.85;;;3.55;;
63312;SDS011;49442;45.640;13.812;2023-03-23T05:27:44;12.18;;;3.70;;
63312;SDS011;49442;45.640;13.812;2023-03-23T05:30:14;6.57;;;3.67;;
63312;SDS011;49442;45.640;13.812;2023-03-23T05:32:42;6.70;;;3.53;;
63312;SDS011;49442;45.640;13.812;2023-03-23T05:35:10;5.43;;;3.60;;
63312;SDS011;49442;45.640;13.812;2023-03-23T05:37:37;5.22;;;3.55;;
63312;SDS011;49442;45.640;13.812;2023-03-23T05:40:04;3.80;;;3.17;;
63312;SDS011;49442;45.640;13.812;2023-03-23T05:42:32;5.43;;;3.38;;
63312;SDS011;49442;45.640;13.812;2023-03-23T05:44:59;4.75;;;3.00;;
63312;SDS011;49442;45.640;13.812;2023-03-23T05:47:26;3.72;;;2.95;;
63312;SDS011;49442;45.640;13.812;2023-03-23T05:49:51;5.78;;;3.30;;
63312;SDS011;49442;45.640;13.812;2023-03-23T05:52:18;5.82;;;2.92;;
63312;SDS011;49442;45.640;13.812;2023-03-23T05:54:45;7.70;;;4.30;;
63312;SDS011;49442;45.640;13.812;2023-03-23T05:57:11;6.35;;;3.03;;
63312;SDS011;49442;45.640;13.812;2023-03-23T05:59:38;6.82;;;2.80;;
63312;SDS011;49442;45.640;13.812;2023-03-23T06:02:04;5.38;;;3.40;;
63312;SDS011;49442;45.640;13.812;2023-03-23T06:04:30;5.32;;;2.90;;
63312;SDS011;49442;45.640;13.812;2023-03-23T06:06:58;7.10;;;3.08;;
63312;SDS011;49442;45.640;13.812;2023-03-23T06:09:27;6.88;;;3.15;;
63312;SDS011;49442;45.640;13.812;2023-03-23T06:11:53;16.75;;;3.45;;
63312;SDS011;49442;45.640;13.812;2023-03-23T06:14:19;10.50;;;3.42;;
63312;SDS011;49442;45.640;13.812;2023-03-23T06:16:46;8.25;;;3.42;;
63312;SDS011;49442;45.640;13.812;2023-03-23T06:19:12;9.20;;;3.10;;
63312;SDS011;49442;45.640;13.812;2023-03-23T06:21:37;9.65;;;3.30;;
63312;SDS011;49442;45.640;13.812;2023-03-23T06:24:03;14.27;;;3.45;;
63312;SDS011;49442;45.640;13.812;2023-03-23T06:26:36;19.08;;;4.18;;
63312;SDS011;49442;45.640;13.812;2023-03-23T06:29:04;17.15;;;3.60;;
63312;SDS011;49442;45.640;13.812;2023-03-23T06:31:41;12.68;;;3.60;;
63312;SDS011;49442;45.640;13.812;2023-03-23T06:34:10;7.47;;;3.17;;
63312;SDS011;49442;45.640;13.812;2023-03-23T06:36:36;10.68;;;3.80;;
63312;SDS011;49442;45.640;13.812;2023-03-23T06:39:03;10.55;;;3.20;;
63312;SDS011;49442;45.640;13.812;2023-03-23T06:41:33;21.52;;;3.92;;
63312;SDS011;49442;45.640;13.812;2023-03-23T06:43:59;20.55;;;4.10;;
63312;SDS011;49442;45.640;13.812;2023-03-23T06:46:25;19.98;;;3.55;;
63312;SDS011;49442;45.640;13.812;2023-03-23T06:48:51;20.63;;;4.50;;
63312;SDS011;49442;45.640;13.812;2023-03-23T06:51:18;11.52;;;4.32;;
63312;SDS011;49442;45.640;13.812;2023-03-23T06:53:43;33.22;;;7.53;;
63312;SDS011;49442;45.640;13.812;2023-03-23T06:56:09;35.13;;;7.28;;
63312;SDS011;49442;45.640;13.812;2023-03-23T06:58:37;16.25;;;4.97;;
63312;SDS011;49442;45.640;13.812;2023-03-23T07:01:03;8.95;;;3.40;;
63312;SDS011;49442;45.640;13.812;2023-03-23T07:03:29;10.68;;;3.63;;
63312;SDS011;49442;45.640;13.812;2023-03-23T07:05:56;14.32;;;3.97;;
63312;SDS011;49442;45.640;13.812;2023-03-23T07:08:21;15.90;;;4.22;;
63312;SDS011;49442;45.640;13.812;2023-03-23T07:10:50;12.88;;;3.00;;
63312;SDS011;49442;45.640;13.812;2023-03-23T07:13:17;13.13;;;3.70;;
63312;SDS011;49442;45.640;13.812;2023-03-23T07:15:43;6.13;;;3.63;;
63312;SDS011;49442;45.640;13.812;2023-03-23T07:18:09;7.38;;;4.07;;
63312;SDS011;49442;45.640;13.812;2023-03-23T07:20:35;11.70;;;4.47;;
63312;SDS011;49442;45.640;13.812;2023-03-23T07:23:01;7.18;;;4.63;;
63312;SDS011;49442;45.640;13.812;2023-03-23T07:25:27;9.55;;;4.70;;
63312;SDS011;49442;45.640;13.812;2023-03-23T07:27:53;11.10;;;5.28;;
63312;SDS011;49442;45.640;13.812;2023-03-23T07:30:19;20.58;;;7.15;;
63312;SDS011;49442;45.640;13.812;2023-03-23T07:32:44;15.52;;;7.20;;
63312;SDS011;49442;45.640;13.812;2023-03-23T07:35:10;13.60;;;7.95;;
63312;SDS011;49442;45.640;13.812;2023-03-23T07:37:36;14.80;;;6.65;;
63312;SDS011;49442;45.640;13.812;2023-03-23T07:40:02;16.40;;;7.80;;
63312;SDS011;49442;45.640;13.812;2023-03-23T07:42:40;11.30;;;7.72;;
63312;SDS011;49442;45.640;13.812;2023-03-23T07:45:11;7.97;;;6.20;;
63312;SDS011;49442;45.640;13.812;2023-03-23T07:47:38;11.10;;;7.40;;
63312;SDS011;49442;45.640;13.812;2023-03-23T07:50:05;21.30;;;8.32;;
63312;SDS011;49442;45.640;13.812;2023-03-23T07:52:36;14.10;;;8.10;;
63312;SDS011;49442;45.640;13.812;2023-03-23T07:57:29;11.57;;;7.22;;
63312;SDS011;49442;45.640;13.812;2023-03-23T07:59:56;14.52;;;8.35;;
63312;SDS011;49442;45.640;13.812;2023-03-23T08:02:22;11.25;;;7.75;;
63312;SDS011;49442;45.640;13.812;2023-03-23T08:04:48;13.20;;;8.63;;
63312;SDS011;49442;45.640;13.812;2023-03-23T08:07:15;10.52;;;8.52;;
63312;SDS011;49442;45.640;13.812;2023-03-23T08:09:42;13.02;;;7.55;;
63312;SDS011;49442;45.640;13.812;2023-03-23T08:12:08;17.83;;;12.45;;
63312;SDS011;49442;45.640;13.812;2023-03-23T08:14:35;16.35;;;11.10;;
63312;SDS011;49442;45.640;13.812;2023-03-23T08:17:00;27.55;;;12.43;;
63312;SDS011;49442;45.640;13.812;2023-03-23T08:19:26;17.05;;;11.38;;
63312;SDS011;49442;45.640;13.812;2023-03-23T08:21:52;14.55;;;9.00;;
63312;SDS011;49442;45.640;13.812;2023-03-23T08:24:18;19.27;;;8.88;;
63312;SDS011;49442;45.640;13.812;2023-03-23T08:26:44;11.80;;;6.75;;
63312;SDS011;49442;45.640;13.812;2023-03-23T08:29:10;26.52;;;12.73;;
63312;SDS011;49442;45.640;13.812;2023-03-23T08:31:36;19.23;;;12.30;;
63312;SDS011;49442;45.640;13.812;2023-03-23T08:34:04;22.88;;;13.25;;
63312;SDS011;49442;45.640;13.812;2023-03-23T08:36:31;16.40;;;10.70;;
63312;SDS011;49442;45.640;13.812;2023-03-23T08:38:57;24.45;;;13.77;;
63312;SDS011;49442;45.640;13.812;2023-03-23T08:41:24;22.83;;;14.98;;
63312;SDS011;49442;45.640;13.812;2023-03-23T08:43:50;19.08;;;14.50;;
63312;SDS011;49442;45.640;13.812;2023-03-23T08:46:17;24.38;;;13.77;;
63312;SDS011;49442;45.640;13.812;2023-03-23T08:48:45;16.60;;;12.07;;
63312;SDS011;49442;45.640;13.812;2023-03-23T08:51:11;17.08;;;13.25;;
63312;SDS011;49442;45.640;13.812;2023-03-23T08:53:37;13.27;;;9.82;;
63312;SDS011;49442;45.640;13.812;2023-03-23T08:56:07;12.20;;;8.25;;
63312;SDS011;49442;45.640;13.812;2023-03-23T08:58:34;11.25;;;7.90;;
63312;SDS011;49442;45.640;13.812;2023-03-23T09:01:01;8.30;;;6.80;;
63312;SDS011;49442;45.640;13.812;2023-03-23T09:03:27;11.60;;;6.45;;
63312;SDS011;49442;45.640;13.812;2023-03-23T09:05:53;10.50;;;6.45;;
63312;SDS011;49442;45.640;13.812;2023-03-23T09:08:26;14.18;;;8.00;;
63312;SDS011;49442;45.640;13.812;2023-03-23T09:10:54;10.07;;;5.90;;
63312;SDS011;49442;45.640;13.812;2023-03-23T09:13:23;10.95;;;5.57;;
63312;SDS011;49442;45.640;13.812;2023-03-23T09:15:48;8.90;;;5.95;;
63312;SDS011;49442;45.640;13.812;2023-03-23T09:18:14;7.75;;;5.03;;
63312;SDS011;49442;45.640;13.812;2023-03-23T09:20:40;5.72;;;5.07;;
63312;SDS011;49442;45.640;13.812;2023-03-23T09:23:07;10.10;;;6.38;;
63312;SDS011;49442;45.640;13.812;2023-03-23T09:25:33;11.93;;;6.15;;
63312;SDS011;49442;45.640;13.812;2023-03-23T09:27:58;6.82;;;5.28;;
63312;SDS011;49442;45.640;13.812;2023-03-23T09:30:28;7.40;;;5.72;;
63312;SDS011;49442;45.640;13.812;2023-03-23T09:32:56;8.57;;;6.82;;
63312;SDS011;49442;45.640;13.812;2023-03-23T09:35:22;8.82;;;5.35;;
63312;SDS011;49442;45.640;13.812;2023-03-23T09:37:49;6.38;;;5.22;;
63312;SDS011;49442;45.640;13.812;2023-03-23T09:40:17;5.68;;;4.20;;
63312;SDS011;49442;45.640;13.812;2023-03-23T09:43:03;7.13;;;3.97;;
63312;SDS011;49442;45.640;13.812;2023-03-23T09:54:05;5.35;;;2.92;;
63312;SDS011;49442;45.640;13.812;2023-03-23T09:56:49;6.45;;;3.65;;
63312;SDS011;49442;45.640;13.812;2023-03-23T09:59:36;5.50;;;3.08;;
63312;SDS011;49442;45.640;13.812;2023-03-23T10:02:15;5.28;;;3.50;;
63312;SDS011;49442;45.640;13.812;2023-03-23T10:04:47;7.65;;;5.10;;
63312;SDS011;49442;45.640;13.812;2023-03-23T10:09:42;6.68;;;3.92;;
63312;SDS011;49442;45.640;13.812;2023-03-23T10:12:13;6.80;;;4.75;;
63312;SDS011;49442;45.640;13.812;2023-03-23T10:25:53;9.35;;;5.30;;
63312;SDS011;49442;45.640;13.812;2023-03-23T10:28:35;8.88;;;5.75;;
63312;SDS011;49442;45.640;13.812;2023-03-23T10:31:14;10.50;;;6.20;;
63312;SDS011;49442;45.640;13.812;2023-03-23T10:33:47;11.95;;;6.88;;
63312;SDS011;49442;45.640;13.812;2023-03-23T10:36:25;14.00;;;6.78;;
63312;SDS011;49442;45.640;13.812;2023-03-23T10:39:19;10.25;;;6.43;;
63312;SDS011;49442;45.640;13.812;2023-03-23T10:41:47;10.68;;;7.07;;
63312;SDS011;49442;45.640;13.812;2023-03-23T10:44:17;12.00;;;6.50;;
63312;SDS011;49442;45.640;13.812;2023-03-23T10:46:49;8.32;;;6.13;;
63312;SDS011;49442;45.640;13.812;2023-03-23T10:49:19;13.20;;;6.97;;
63312;SDS011;49442;45.640;13.812;2023-03-23T10:52:18;10.23;;;6.70;;
63312;SDS011;49442;45.640;13.812;2023-03-23T10:57:30;11.73;;;6.20;;
63312;SDS011;49442;45.640;13.812;2023-03-23T11:00:03;10.02;;;5.72;;
63312;SDS011;49442;45.640;13.812;2023-03-23T11:02:44;9.75;;;5.65;;
63312;SDS011;49442;45.640;13.812;2023-03-23T11:08:00;13.10;;;5.95;;
63312;SDS011;49442;45.640;13.812;2023-03-23T11:10:37;10.50;;;5.70;;
63312;SDS011;49442;45.640;13.812;2023-03-23T11:13:09;8.57;;;5.45;;
63312;SDS011;49442;45.640;13.812;2023-03-23T11:15:41;9.68;;;4.70;;
63312;SDS011;49442;45.640;13.812;2023-03-23T11:18:12;8.85;;;5.38;;
63312;SDS011;49442;45.640;13.812;2023-03-23T11:20:44;5.13;;;3.67;;
63312;SDS011;49442;45.640;13.812;2023-03-23T11:23:29;5.90;;;3.70;;
63312;SDS011;49442;45.640;13.812;2023-03-23T11:28:45;11.23;;;5.47;;
63312;SDS011;49442;45.640;13.812;2023-03-23T11:31:12;6.70;;;4.50;;
63312;SDS011;49442;45.640;13.812;2023-03-23T11:36:17;8.48;;;4.40;;
63312;SDS011;49442;45.640;13.812;2023-03-23T11:38:43;7.82;;;4.93;;
63312;SDS011;49442;45.640;13.812;2023-03-23T11:41:16;7.45;;;5.47;;
63312;SDS011;49442;45.640;13.812;2023-03-23T11:43:44;9.02;;;5.18;;
63312;SDS011;49442;45.640;13.812;2023-03-23T11:46:28;9.93;;;5.63;;
63312;SDS011;49442;45.640;13.812;2023-03-23T11:49:01;13.63;;;5.63;;
63312;SDS011;49442;45.640;13.812;2023-03-23T11:51:33;8.55;;;6.05;;
63312;SDS011;49442;45.640;13.812;2023-03-23T11:54:15;9.73;;;5.72;;
63312;SDS011;49442;45.640;13.812;2023-03-23T11:56:47;11.32;;;5.85;;
63312;SDS011;49442;45.640;13.812;2023-03-23T11:59:14;11.93;;;5.90;;
63312;SDS011;49442;45.640;13.812;2023-03-23T12:10:39;9.18;;;5.38;;
63312;SDS011;49442;45.640;13.812;2023-03-23T12:13:33;10.25;;;5.70;;
63312;SDS011;49442;45.640;13.812;2023-03-23T12:19:13;10.38;;;5.82;;
63312;SDS011;49442;45.640;13.812;2023-03-23T12:32:27;6.45;;;4.07;;
63312;SDS011;49442;45.640;13.812;2023-03-23T12:40:19;7.07;;;4.40;;
63312;SDS011;49442;45.640;13.812;2023-03-23T12:48:21;4.03;;;3.60;;
63312;SDS011;49442;45.640;13.812;2023-03-23T12:51:06;5.78;;;3.78;;
63312;SDS011;49442;45.640;13.812;2023-03-23T12:53:36;7.32;;;4.20;;
63312;SDS011;49442;45.640;13.812;2023-03-23T12:59:03;10.70;;;4.97;;
63312;SDS011;49442;45.640;13.812;2023-03-23T13:02:34;5.50;;;3.63;;
63312;SDS011;49442;45.640;13.812;2023-03-23T13:04:38;7.38;;;4.32;;
63312;SDS011;49442;45.640;13.812;2023-03-23T13:07:12;6.13;;;3.05;;
63312;SDS011;49442;45.640;13.812;2023-03-23T13:09:48;7.90;;;3.65;;
63312;SDS011;49442;45.640;13.812;2023-03-23T13:12:24;7.85;;;4.07;;
63312;SDS011;49442;45.640;13.812;2023-03-23T13:17:44;4.10;;;2.60;;
63312;SDS011;49442;45.640;13.812;2023-03-23T13:23:25;4.20;;;2.80;;
63312;SDS011;49442;45.640;13.812;2023-03-23T13:26:10;7.78;;;4.38;;
63312;SDS011;49442;45.640;13.812;2023-03-23T13:31:14;8.70;;;4.65;;
63312;SDS011;49442;45.640;13.812;2023-03-23T13:33:51;8.93;;;3.55;;
63312;SDS011;49442;45.640;13.812;2023-03-23T13:36:33;5.25;;;3.95;;
63312;SDS011;49442;45.640;13.812;2023-03-23T13:39:01;11.20;;;5.15;;
63312;SDS011;49442;45.640;13.812;2023-03-23T13:41:32;11.02;;;4.70;;
63312;SDS011;49442;45.640;13.812;2023-03-23T13:44:15;7.90;;;4.85;;
63312;SDS011;49442;45.640;13.812;2023-03-23T13:46:53;7.50;;;4.47;;
63312;SDS011;49442;45.640;13.812;2023-03-23T13:49:20;10.60;;;4.60;;
63312;SDS011;49442;45.640;13.812;2023-03-23T13:56:57;8.32;;;4.07;;
63312;SDS011;49442;45.640;13.812;2023-03-23T14:01:51;7.30;;;4.13;;
63312;SDS011;49442;45.640;13.812;2023-03-23T14:04:22;9.75;;;3.92;;
63312;SDS011;49442;45.640;13.812;2023-03-23T14:06:56;8.65;;;3.95;;
63312;SDS011;49442;45.640;13.812;2023-03-23T14:14:34;5.45;;;3.53;;
63312;SDS011;49442;45.640;13.812;2023-03-23T14:17:28;7.57;;;4.13;;
63312;SDS011;49442;45.640;13.812;2023-03-23T14:19:54;6.82;;;3.90;;
63312;SDS011;49442;45.640;13.812;2023-03-23T14:22:23;12.48;;;3.38;;
63312;SDS011;49442;45.640;13.812;2023-03-23T14:24:59;6.07;;;3.50;;
63312;SDS011;49442;45.640;13.812;2023-03-23T14:27:50;5.43;;;3.65;;
63312;SDS011;49442;45.640;13.812;2023-03-23T14:30:21;4.03;;;3.00;;
63312;SDS011;49442;45.640;13.812;2023-03-23T14:32:49;6.03;;;3.85;;
63312;SDS011;49442;45.640;13.812;2023-03-23T14:35:27;4.43;;;3.50;;
63312;SDS011;49442;45.640;13.812;2023-03-23T14:37:57;5.78;;;3.00;;
63312;SDS011;49442;45.640;13.812;2023-03-23T14:40:25;2.80;;;2.45;;
63312;SDS011;49442;45.640;13.812;2023-03-23T14:42:52;11.88;;;3.45;;
63312;SDS011;49442;45.640;13.812;2023-03-23T14:45:19;5.03;;;3.00;;
63312;SDS011;49442;45.640;13.812;2023-03-23T14:47:51;6.00;;;3.13;;
63312;SDS011;49442;45.640;13.812;2023-03-23T14:50:23;4.40;;;3.45;;
63312;SDS011;49442;45.640;13.812;2023-03-23T14:52:51;8.32;;;3.95;;
63312;SDS011;49442;45.640;13.812;2023-03-23T14:55:20;6.35;;;3.80;;
63312;SDS011;49442;45.640;13.812;2023-03-23T14:57:47;4.72;;;3.22;;
63312;SDS011;49442;45.640;13.812;2023-03-23T15:02:54;5.18;;;3.28;;
63312;SDS011;49442;45.640;13.812;2023-03-23T15:05:34;4.10;;;3.70;;
63312;SDS011;49442;45.640;13.812;2023-03-23T15:08:05;5.03;;;3.00;;
63312;SDS011;49442;45.640;13.812;2023-03-23T15:10:35;12.13;;;3.55;;
63312;SDS011;49442;45.640;13.812;2023-03-23T15:13:01;6.00;;;3.70;;
63312;SDS011;49442;45.640;13.812;2023-03-23T15:15:33;13.05;;;3.97;;
63312;SDS011;49442;45.640;13.812;2023-03-23T15:18:00;5.15;;;3.22;;
63312;SDS011;49442;45.640;13.812;2023-03-23T15:23:17;11.10;;;3.17;;
63312;SDS011;49442;45.640;13.812;2023-03-23T15:25:56;6.47;;;4.15;;
63312;SDS011;49442;45.640;13.812;2023-03-23T15:28:30;7.57;;;3.38;;
63312;SDS011;49442;45.640;13.812;2023-03-23T15:31:00;5.53;;;3.67;;
63312;SDS011;49442;45.640;13.812;2023-03-23T15:33:35;8.73;;;3.45;;
63312;SDS011;49442;45.640;13.812;2023-03-23T15:36:14;8.00;;;3.45;;
63312;SDS011;49442;45.640;13.812;2023-03-23T15:38:42;6.15;;;3.47;;
63312;SDS011;49442;45.640;13.812;2023-03-23T15:41:20;5.38;;;2.78;;
63312;SDS011;49442;45.640;13.812;2023-03-23T15:43:53;5.38;;;3.53;;
63312;SDS011;49442;45.640;13.812;2023-03-23T15:46:23;5.05;;;3.40;;
63312;SDS011;49442;45.640;13.812;2023-03-23T15:51:23;5.88;;;3.53;;
63312;SDS011;49442;45.640;13.812;2023-03-23T15:53:52;4.88;;;3.75;;
63312;SDS011;49442;45.640;13.812;2023-03-23T15:56:19;7.22;;;3.58;;
63312;SDS011;49442;45.640;13.812;2023-03-23T15:58:45;8.63;;;3.63;;
63312;SDS011;49442;45.640;13.812;2023-03-23T16:01:12;8.30;;;3.80;;
63312;SDS011;49442;45.640;13.812;2023-03-23T16:03:53;6.85;;;4.40;;
63312;SDS011;49442;45.640;13.812;2023-03-23T16:06:30;4.68;;;3.72;;
63312;SDS011;49442;45.640;13.812;2023-03-23T16:08:57;7.10;;;4.25;;
63312;SDS011;49442;45.640;13.812;2023-03-23T16:11:25;5.28;;;3.53;;
63312;SDS011;49442;45.640;13.812;2023-03-23T16:13:52;4.53;;;3.53;;
63312;SDS011;49442;45.640;13.812;2023-03-23T16:16:26;6.05;;;3.55;;
63312;SDS011;49442;45.640;13.812;2023-03-23T16:18:59;5.63;;;3.92;;
63312;SDS011;49442;45.640;13.812;2023-03-23T16:21:24;4.32;;;3.10;;
63312;SDS011;49442;45.640;13.812;2023-03-23T16:23:53;7.18;;;3.80;;
63312;SDS011;49442;45.640;13.812;2023-03-23T16:26:20;5.72;;;4.00;;
63312;SDS011;49442;45.640;13.812;2023-03-23T16:28:46;5.50;;;3.72;;
63312;SDS011;49442;45.640;13.812;2023-03-23T16:31:11;4.85;;;3.20;;
63312;SDS011;49442;45.640;13.812;2023-03-23T16:33:37;5.72;;;3.83;;
63312;SDS011;49442;45.640;13.812;2023-03-23T16:36:03;5.85;;;4.00;;
63312;SDS011;49442;45.640;13.812;2023-03-23T16:38:29;6.20;;;3.65;;
63312;SDS011;49442;45.640;13.812;2023-03-23T16:40:55;5.20;;;3.63;;
63312;SDS011;49442;45.640;13.812;2023-03-23T16:43:20;9.57;;;3.88;;
63312;SDS011;49442;45.640;13.812;2023-03-23T16:45:46;5.70;;;3.70;;
63312;SDS011;49442;45.640;13.812;2023-03-23T16:48:13;5.72;;;3.30;;
63312;SDS011;49442;45.640;13.812;2023-03-23T16:50:41;4.38;;;3.15;;
63312;SDS011;49442;45.640;13.812;2023-03-23T16:53:08;5.28;;;3.70;;